Time;durP1;ratioP1;P1;durP2;ratioP2;P2;SDS_P1;SDS_P2;PMS_P1;PMS_P2;Temp;Humidity;BMP_temperature;BMP_pressure;BME280_temperature;BME280_humidity;BME280_pressure;Samples;Min_cycle;Max_cycle;Signal;HPM_P1;HPM_P2
2023/04/16 00:00:48;;;;;;;27.70;13.27;;;8.10;94.10;;;;;;5061090;28;20184;-76
2023/04/16 00:03:14;;;;;;;32.00;15.07;;;8.10;94.00;;;;;;5061447;28;20247;-74
2023/04/16 00:05:40;;;;;;;29.67;14.70;;;8.10;94.10;;;;;;5061903;28;20676;-74
2023/04/16 00:08:06;;;;;;;24.80;12.17;;;8.10;94.10;;;;;;5047906;28;20438;-76
2023/04/16 00:10:32;;;;;;;28.23;13.00;;;8.10;94.20;;;;;;5065281;28;20248;-76
2023/04/16 00:12:58;;;;;;;24.83;13.33;;;8.00;94.10;;;;;;5062819;28;20215;-75
2023/04/16 00:15:23;;;;;;;24.60;11.93;;;8.10;94.30;;;;;;5041494;28;21087;-77
2023/04/16 00:17:49;;;;;;;27.10;13.23;;;8.10;94.20;;;;;;5060526;28;20192;-76
2023/04/16 00:20:15;;;;;;;22.07;11.80;;;8.10;94.10;;;;;;5064368;28;20257;-77
2023/04/16 00:22:40;;;;;;;27.80;12.50;;;8.20;94.10;;;;;;5062582;28;20218;-76
2023/04/16 00:25:06;;;;;;;27.63;12.53;;;8.20;94.10;;;;;;5059088;28;20184;-77
2023/04/16 00:27:32;;;;;;;27.20;13.80;;;8.10;93.90;;;;;;5053481;28;20322;-77
2023/04/16 00:29:57;;;;;;;24.30;12.23;;;8.20;94.00;;;;;;5058211;28;20847;-77
2023/04/16 00:32:23;;;;;;;24.13;12.50;;;8.20;93.90;;;;;;5058535;28;20548;-76
2023/04/16 00:34:48;;;;;;;29.80;13.60;;;8.10;93.90;;;;;;5058510;28;20192;-76
2023/04/16 00:37:14;;;;;;;24.10;11.87;;;8.10;93.70;;;;;;5057445;28;20219;-79
2023/04/16 00:39:40;;;;;;;24.40;12.93;;;8.10;93.80;;;;;;5064304;28;20224;-76
2023/04/16 00:42:05;;;;;;;24.47;12.80;;;8.20;93.90;;;;;;5064500;28;20185;-77
2023/04/16 00:44:33;;;;;;;29.60;13.03;;;8.20;93.90;;;;;;5044502;28;20223;-75
2023/04/16 00:47:00;;;;;;;22.67;12.80;;;8.20;93.90;;;;;;5054738;28;20211;-76
2023/04/16 00:49:26;;;;;;;23.10;12.10;;;8.20;93.80;;;;;;5059323;28;20558;-75
2023/04/16 00:51:51;;;;;;;23.90;12.83;;;8.20;93.80;;;;;;5059125;28;20447;-75
2023/04/16 00:54:18;;;;;;;23.50;13.30;;;8.20;93.70;;;;;;5050588;28;20989;-76
2023/04/16 00:56:43;;;;;;;26.00;12.50;;;8.20;93.70;;;;;;5051966;28;20238;-77
2023/04/16 00:59:09;;;;;;;26.23;12.67;;;8.20;93.70;;;;;;5051197;28;20432;-76
2023/04/16 01:01:35;;;;;;;24.70;12.70;;;8.20;93.60;;;;;;5040540;28;20196;-76
2023/04/16 01:04:01;;;;;;;24.88;13.68;;;8.20;93.60;;;;;;5056269;28;20449;-76
2023/04/16 01:06:26;;;;;;;23.10;12.90;;;8.20;93.70;;;;;;5038146;28;20208;-76
2023/04/16 01:08:52;;;;;;;26.20;13.43;;;8.20;93.70;;;;;;5060934;28;20267;-76
2023/04/16 01:11:17;;;;;;;26.00;12.33;;;8.20;93.50;;;;;;5062879;28;20569;-76
2023/04/16 01:13:43;;;;;;;28.87;12.13;;;8.10;93.40;;;;;;5060089;28;20199;-74
2023/04/16 01:16:10;;;;;;;22.67;11.17;;;8.20;93.50;;;;;;5059098;28;20221;-75
2023/04/16 01:18:37;;;;;;;22.60;11.17;;;8.10;93.50;;;;;;5063708;28;20249;-76
2023/04/16 01:21:03;;;;;;;27.60;13.33;;;8.20;93.50;;;;;;5061231;28;20415;-76
2023/04/16 01:23:29;;;;;;;22.00;11.90;;;8.20;93.50;;;;;;5058644;28;20466;-76
2023/04/16 01:25:54;;;;;;;24.63;12.00;;;8.10;93.50;;;;;;5045685;28;20485;-76
2023/04/16 01:28:21;;;;;;;18.10;9.90;;;8.10;93.60;;;;;;5049777;28;20640;-75
2023/04/16 01:30:46;;;;;;;19.80;10.80;;;8.20;93.70;;;;;;5049001;28;20191;-75
2023/04/16 01:33:13;;;;;;;21.43;11.30;;;8.10;93.50;;;;;;5047823;28;20426;-76
2023/04/16 01:35:39;;;;;;;26.77;11.40;;;8.10;93.60;;;;;;5030326;28;20217;-77
2023/04/16 01:38:07;;;;;;;22.00;11.50;;;8.20;93.60;;;;;;5050838;28;20485;-76
2023/04/16 01:40:33;;;;;;;22.53;11.97;;;8.20;93.70;;;;;;5051278;28;20419;-75
2023/04/16 01:42:59;;;;;;;23.10;11.60;;;8.10;93.80;;;;;;5053524;28;20482;-74
2023/04/16 01:45:25;;;;;;;24.83;11.77;;;8.10;93.80;;;;;;5053406;28;20482;-76
2023/04/16 01:47:51;;;;;;;21.83;10.23;;;8.00;93.70;;;;;;5054734;28;20500;-75
2023/04/16 01:50:18;;;;;;;21.37;10.90;;;8.10;93.80;;;;;;5035136;28;20188;-76
2023/04/16 01:52:43;;;;;;;20.77;10.80;;;8.00;93.80;;;;;;5033176;28;20423;-75
2023/04/16 01:55:09;;;;;;;22.60;10.37;;;8.00;93.90;;;;;;5029589;28;20830;-76
2023/04/16 01:57:35;;;;;;;23.40;10.90;;;8.00;94.10;;;;;;5047059;28;20238;-74
2023/04/16 02:00:02;;;;;;;23.10;11.27;;;8.00;94.10;;;;;;5049801;28;20191;-77
2023/04/16 02:02:28;;;;;;;22.20;10.70;;;8.10;94.20;;;;;;5049411;28;20192;-75
2023/04/16 02:04:54;;;;;;;20.17;9.57;;;8.00;94.20;;;;;;5049131;28;20473;-75
2023/04/16 02:07:20;;;;;;;18.90;9.90;;;8.10;94.20;;;;;;5045658;28;20463;-77
2023/04/16 02:09:45;;;;;;;22.00;10.10;;;8.00;94.20;;;;;;5050072;28;20427;-76
2023/04/16 02:12:11;;;;;;;19.53;9.60;;;8.00;94.20;;;;;;5051723;28;20257;-76
2023/04/16 02:14:37;;;;;;;22.40;9.97;;;8.10;94.20;;;;;;5051648;28;20188;-75
2023/04/16 02:17:03;;;;;;;18.27;9.70;;;8.00;94.10;;;;;;5038574;28;20265;-75
2023/04/16 02:19:28;;;;;;;15.50;9.17;;;8.10;94.10;;;;;;5062397;28;20207;-76
2023/04/16 02:21:54;;;;;;;17.00;9.20;;;8.00;94.10;;;;;;5047798;28;20423;-76
2023/04/16 02:24:20;;;;;;;20.60;10.00;;;8.00;94.30;;;;;;5049781;28;20208;-76
2023/04/16 02:26:46;;;;;;;21.17;11.00;;;8.00;94.30;;;;;;5066876;28;20218;-76
2023/04/16 02:29:12;;;;;;;18.53;10.87;;;8.00;94.30;;;;;;5069336;28;20427;-76
2023/04/16 02:31:38;;;;;;;21.73;10.57;;;8.00;94.40;;;;;;5054073;28;20422;-75
2023/04/16 02:34:04;;;;;;;21.70;11.43;;;8.00;94.40;;;;;;5056899;28;20710;-75
2023/04/16 02:36:30;;;;;;;19.97;9.80;;;8.00;94.50;;;;;;5052634;28;20307;-76
2023/04/16 02:38:59;;;;;;;18.23;9.27;;;8.00;94.50;;;;;;5062490;28;20418;-75
2023/04/16 02:41:25;;;;;;;19.40;10.20;;;8.00;94.40;;;;;;5064614;28;20431;-75
2023/04/16 02:43:50;;;;;;;18.60;9.77;;;8.00;94.30;;;;;;5063536;28;20466;-74
2023/04/16 02:46:16;;;;;;;24.57;11.60;;;8.00;94.40;;;;;;5060355;28;20208;-75
2023/04/16 02:48:41;;;;;;;19.60;9.67;;;8.00;94.30;;;;;;5063286;28;20647;-77
2023/04/16 02:51:07;;;;;;;19.40;10.73;;;8.00;94.30;;;;;;5061450;28;20185;-75
2023/04/16 02:53:33;;;;;;;21.10;9.90;;;8.00;94.20;;;;;;5060802;28;20200;-73
2023/04/16 02:55:59;;;;;;;21.47;10.07;;;8.00;94.20;;;;;;5053451;28;20212;-77
2023/04/16 02:58:25;;;;;;;23.43;10.00;;;8.00;94.30;;;;;;5055754;28;20963;-75
2023/04/16 03:00:52;;;;;;;19.20;10.70;;;8.00;94.30;;;;;;5054930;28;20184;-75
2023/04/16 03:03:18;;;;;;;19.03;10.07;;;8.00;94.30;;;;;;5056122;28;20466;-76
2023/04/16 03:05:44;;;;;;;24.70;12.50;;;8.00;94.20;;;;;;5055384;28;20454;-76
2023/04/16 03:08:10;;;;;;;20.40;10.20;;;8.00;94.20;;;;;;5055004;28;20500;-76
2023/04/16 03:10:36;;;;;;;26.13;11.37;;;8.00;94.30;;;;;;5048555;28;20189;-76
2023/04/16 03:13:02;;;;;;;24.83;11.10;;;8.00;94.30;;;;;;5049852;28;20447;-75
2023/04/16 03:15:29;;;;;;;21.47;10.20;;;8.00;94.30;;;;;;5046483;28;20462;-75
2023/04/16 03:17:55;;;;;;;20.73;10.57;;;8.00;94.30;;;;;;5052078;28;21539;-75
2023/04/16 03:20:20;;;;;;;21.33;10.40;;;8.00;94.30;;;;;;5053673;28;20431;-75
2023/04/16 03:22:46;;;;;;;20.60;9.40;;;8.00;94.30;;;;;;5053569;28;20475;-75
2023/04/16 03:25:12;;;;;;;19.37;9.67;;;8.00;94.30;;;;;;5047400;28;20177;-76
2023/04/16 03:27:38;;;;;;;22.73;10.93;;;8.00;94.30;;;;;;5051497;28;20841;-76
2023/04/16 03:30:15;;;;;;;23.90;10.53;;;8.00;94.10;;;;;;5053655;28;20416;-75
2023/04/16 03:32:40;;;;;;;25.43;11.33;;;8.00;94.10;;;;;;5051051;28;20195;-75
2023/04/16 03:35:07;;;;;;;23.60;11.77;;;8.00;94.00;;;;;;5055952;28;20427;-73
2023/04/16 03:37:33;;;;;;;21.50;10.00;;;7.90;94.00;;;;;;5049772;28;20189;-74
2023/04/16 03:39:59;;;;;;;20.97;10.90;;;7.90;94.10;;;;;;5052630;28;20965;-76
2023/04/16 03:42:25;;;;;;;23.87;11.37;;;8.00;94.20;;;;;;5050943;28;20427;-75
2023/04/16 03:44:52;;;;;;;26.13;11.83;;;8.00;94.10;;;;;;5044307;28;20417;-75
2023/04/16 03:47:18;;;;;;;22.13;10.37;;;7.90;94.30;;;;;;5030257;28;20466;-75
2023/04/16 03:49:44;;;;;;;23.70;10.60;;;8.00;94.30;;;;;;5051702;28;20435;-75
2023/04/16 03:52:10;;;;;;;25.63;10.80;;;8.00;94.30;;;;;;5035896;28;20435;-75
2023/04/16 03:54:35;;;;;;;22.73;10.90;;;8.00;94.10;;;;;;5055712;28;20192;-75
2023/04/16 03:57:01;;;;;;;27.23;12.20;;;8.00;94.20;;;;;;5052381;28;20455;-74
2023/04/16 03:59:26;;;;;;;22.47;10.33;;;8.00;94.20;;;;;;5039280;28;20208;-74
2023/04/16 04:01:52;;;;;;;24.37;12.23;;;7.90;94.20;;;;;;5055746;28;20212;-73
2023/04/16 04:04:17;;;;;;;26.10;11.63;;;8.00;94.20;;;;;;5050769;28;20239;-76
2023/04/16 04:06:45;;;;;;;22.50;11.33;;;8.00;94.30;;;;;;5048043;28;20201;-75
2023/04/16 04:09:11;;;;;;;25.97;12.90;;;8.00;94.30;;;;;;5050963;28;20176;-75
2023/04/16 04:11:36;;;;;;;25.03;10.80;;;7.90;94.30;;;;;;5048056;28;20423;-75
2023/04/16 04:14:03;;;;;;;24.13;10.70;;;7.90;94.40;;;;;;5050468;28;20185;-75
2023/04/16 04:16:30;;;;;;;24.80;11.23;;;7.90;94.30;;;;;;5031815;28;20258;-76
2023/04/16 04:18:55;;;;;;;23.60;10.80;;;7.90;94.30;;;;;;5051430;28;20451;-76
2023/04/16 04:21:21;;;;;;;25.53;11.83;;;7.90;94.30;;;;;;5048212;28;20868;-76
2023/04/16 04:23:47;;;;;;;24.43;11.23;;;8.00;94.30;;;;;;5050594;28;20211;-75
2023/04/16 04:26:12;;;;;;;20.63;10.53;;;8.00;94.40;;;;;;5048812;28;20201;-76
2023/04/16 04:28:38;;;;;;;24.37;10.53;;;7.90;94.50;;;;;;5050955;28;20189;-76
2023/04/16 04:31:03;;;;;;;23.50;10.40;;;7.90;94.40;;;;;;5049075;28;20234;-75
2023/04/16 04:33:29;;;;;;;20.17;10.00;;;7.90;94.40;;;;;;5051169;28;20184;-77
2023/04/16 04:35:55;;;;;;;20.67;9.37;;;7.90;94.40;;;;;;5051894;28;20705;-78
2023/04/16 04:38:24;;;;;;;23.53;10.70;;;7.80;94.30;;;;;;5052592;28;20208;-79
2023/04/16 04:40:50;;;;;;;20.33;8.53;;;7.80;94.20;;;;;;5024499;28;20662;-77
2023/04/16 04:43:15;;;;;;;18.47;9.67;;;7.90;94.30;;;;;;5053986;28;20470;-76
2023/04/16 04:45:41;;;;;;;30.20;11.50;;;7.90;94.10;;;;;;5053345;28;21022;-76
2023/04/16 04:48:07;;;;;;;23.60;10.10;;;7.90;94.20;;;;;;5053866;28;20187;-76
2023/04/16 04:50:32;;;;;;;20.20;10.57;;;7.90;94.30;;;;;;5053817;28;20203;-76
2023/04/16 04:52:58;;;;;;;21.57;9.53;;;7.90;94.30;;;;;;5053523;28;20184;-76
2023/04/16 04:55:23;;;;;;;23.17;9.23;;;7.90;94.20;;;;;;5052923;28;20576;-75
2023/04/16 04:57:49;;;;;;;21.57;10.03;;;7.90;94.30;;;;;;5035367;28;20262;-75
2023/04/16 05:00:15;;;;;;;23.63;11.67;;;7.90;94.30;;;;;;5035256;28;20478;-77
2023/04/16 05:02:41;;;;;;;17.37;8.83;;;7.90;94.30;;;;;;5054995;28;20656;-77
2023/04/16 05:05:07;;;;;;;21.67;9.87;;;7.90;94.20;;;;;;5056325;28;20419;-75
2023/04/16 05:07:32;;;;;;;29.43;12.43;;;8.00;94.20;;;;;;5064559;28;20482;-76
2023/04/16 05:09:58;;;;;;;24.03;11.63;;;8.00;94.30;;;;;;5058786;28;20897;-76
2023/04/16 05:12:23;;;;;;;25.33;10.93;;;8.00;94.20;;;;;;5056533;28;20222;-75
2023/04/16 05:14:49;;;;;;;23.27;10.87;;;8.00;94.20;;;;;;5061416;28;20180;-75
2023/04/16 05:17:15;;;;;;;23.37;10.20;;;8.00;94.30;;;;;;5041825;28;20228;-77
2023/04/16 05:19:40;;;;;;;21.53;9.40;;;7.90;94.20;;;;;;5038328;28;20184;-77
2023/04/16 05:22:06;;;;;;;20.33;9.67;;;7.90;94.20;;;;;;5035447;28;20188;-76
2023/04/16 05:24:31;;;;;;;23.70;10.20;;;7.90;94.40;;;;;;5053158;28;20204;-76
2023/04/16 05:26:57;;;;;;;25.70;10.40;;;7.90;94.30;;;;;;5053304;28;20271;-75
2023/04/16 05:29:23;;;;;;;25.33;10.77;;;7.90;94.40;;;;;;5056529;28;20173;-75
2023/04/16 05:31:49;;;;;;;26.20;10.80;;;7.90;94.40;;;;;;5047739;28;20207;-75
2023/04/16 05:34:14;;;;;;;30.20;14.57;;;7.90;94.50;;;;;;5062532;28;20424;-75
2023/04/16 05:36:40;;;;;;;35.40;15.10;;;7.90;94.60;;;;;;5059015;28;20207;-77
2023/04/16 05:39:06;;;;;;;37.07;14.97;;;7.90;94.70;;;;;;5059475;28;20210;-77
2023/04/16 05:41:32;;;;;;;41.17;16.27;;;7.80;94.70;;;;;;5056984;28;20196;-75
2023/04/16 05:43:58;;;;;;;40.37;15.77;;;7.80;94.80;;;;;;5053742;28;20558;-77
2023/04/16 05:46:23;;;;;;;36.43;15.60;;;7.80;94.90;;;;;;5052626;28;20882;-75
2023/04/16 05:48:49;;;;;;;40.57;17.67;;;7.80;95.10;;;;;;5053117;28;20215;-76
2023/04/16 05:51:14;;;;;;;38.70;16.57;;;7.90;95.20;;;;;;5052814;28;20250;-76
2023/04/16 05:53:40;;;;;;;39.07;17.00;;;7.90;95.20;;;;;;5053065;28;20177;-76
2023/04/16 05:56:06;;;;;;;47.70;19.50;;;8.00;95.30;;;;;;5034512;28;20200;-78
2023/04/16 05:58:32;;;;;;;45.20;20.13;;;7.90;95.20;;;;;;5052100;28;20196;-76
2023/04/16 06:00:58;;;;;;;42.17;18.00;;;7.80;95.10;;;;;;5033451;28;20430;-76
2023/04/16 06:03:23;;;;;;;53.70;20.30;;;7.80;95.20;;;;;;5051328;28;20470;-76
2023/04/16 06:05:49;;;;;;;45.50;18.97;;;7.80;95.20;;;;;;5051880;28;20232;-75
2023/04/16 06:08:15;;;;;;;52.30;20.47;;;7.80;95.30;;;;;;5056789;28;20187;-76
2023/04/16 06:10:40;;;;;;;54.80;22.30;;;7.80;95.30;;;;;;5056744;28;20184;-75
2023/04/16 06:13:06;;;;;;;57.20;21.67;;;7.80;95.50;;;;;;5057511;28;20279;-75
2023/04/16 06:15:31;;;;;;;53.63;20.83;;;7.80;95.50;;;;;;5056018;28;20299;-75
2023/04/16 06:17:57;;;;;;;49.53;19.27;;;7.80;95.50;;;;;;5056596;28;20189;-76
2023/04/16 06:20:22;;;;;;;49.00;21.40;;;7.80;95.50;;;;;;5056856;28;20191;-77
2023/04/16 06:22:48;;;;;;;52.57;21.33;;;7.70;95.30;;;;;;5057915;28;20671;-76
2023/04/16 06:25:14;;;;;;;55.93;22.13;;;7.80;95.40;;;;;;5055886;28;20173;-76
2023/04/16 06:27:39;;;;;;;51.83;20.30;;;7.80;95.40;;;;;;5037430;28;20191;-76
2023/04/16 06:30:11;;;;;;;58.37;21.37;;;7.70;95.40;;;;;;5059358;28;20260;-75
2023/04/16 06:32:37;;;;;;;48.57;19.57;;;7.80;95.40;;;;;;5056360;28;20203;-76
2023/04/16 06:35:03;;;;;;;51.33;19.27;;;7.80;95.40;;;;;;5055011;28;20846;-77
2023/04/16 06:37:29;;;;;;;49.00;20.13;;;7.90;95.40;;;;;;5035059;28;20192;-77
2023/04/16 06:39:54;;;;;;;52.73;20.90;;;8.00;95.40;;;;;;5055118;28;20423;-75
2023/04/16 06:42:20;;;;;;;47.30;20.00;;;8.00;95.30;;;;;;5056957;28;20223;-77
2023/04/16 06:44:46;;;;;;;44.13;19.40;;;8.00;94.90;;;;;;5061189;28;20232;-75
2023/04/16 06:47:12;;;;;;;53.93;19.93;;;8.10;94.90;;;;;;5057884;28;20216;-75
2023/04/16 06:49:38;;;;;;;50.40;20.37;;;8.10;94.70;;;;;;5061677;28;20441;-76
2023/04/16 06:52:04;;;;;;;52.57;21.97;;;8.10;94.60;;;;;;5061051;28;20179;-76
2023/04/16 06:54:30;;;;;;;46.50;20.63;;;8.10;94.50;;;;;;5034267;28;20750;-76
2023/04/16 06:56:56;;;;;;;52.27;20.87;;;8.20;94.50;;;;;;5049950;28;20450;-76
2023/04/16 06:59:21;;;;;;;51.00;20.63;;;8.20;94.40;;;;;;5034688;28;20647;-74
2023/04/16 07:01:47;;;;;;;52.17;21.53;;;8.10;94.30;;;;;;5053359;28;20203;-74
2023/04/16 07:04:12;;;;;;;45.27;19.03;;;8.00;94.30;;;;;;5052047;28;20232;-75
2023/04/16 07:06:38;;;;;;;49.30;21.27;;;8.10;94.40;;;;;;5050556;28;20212;-75
2023/04/16 07:09:03;;;;;;;49.17;20.13;;;8.10;94.30;;;;;;5058487;28;20211;-74
2023/04/16 07:11:29;;;;;;;49.50;19.40;;;8.10;94.20;;;;;;5060409;28;20206;-75
2023/04/16 07:13:56;;;;;;;51.20;20.67;;;8.10;94.20;;;;;;5051616;28;20184;-74
2023/04/16 07:16:22;;;;;;;46.57;19.87;;;8.10;94.10;;;;;;5045647;28;20288;-73
2023/04/16 07:18:47;;;;;;;47.20;20.97;;;8.20;94.10;;;;;;5052593;28;20847;-75
2023/04/16 07:21:13;;;;;;;42.70;19.20;;;8.20;93.90;;;;;;5053706;28;20725;-75
2023/04/16 07:23:39;;;;;;;51.43;20.17;;;8.20;93.80;;;;;;5052621;28;20208;-75
2023/04/16 07:26:04;;;;;;;52.53;20.37;;;8.30;93.80;;;;;;5045154;28;20264;-75
2023/04/16 07:28:30;;;;;;;51.17;19.80;;;8.30;93.80;;;;;;5034848;28;20243;-75
2023/04/16 07:30:56;;;;;;;51.03;18.57;;;8.40;93.60;;;;;;5052875;28;20180;-75
2023/04/16 07:33:21;;;;;;;40.73;17.53;;;8.30;93.10;;;;;;5052595;28;20191;-75
2023/04/16 07:35:47;;;;;;;46.93;19.90;;;8.40;93.20;;;;;;5048829;28;20212;-77
2023/04/16 07:38:13;;;;;;;45.07;19.00;;;8.40;92.80;;;;;;5050667;28;20568;-76
2023/04/16 07:40:39;;;;;;;40.77;17.30;;;8.40;92.80;;;;;;5051982;28;21064;-75
2023/04/16 07:43:04;;;;;;;40.10;18.77;;;8.50;92.60;;;;;;5052046;28;20470;-74
2023/04/16 07:45:30;;;;;;;38.10;17.10;;;8.50;92.80;;;;;;5048314;28;20217;-74
2023/04/16 07:47:56;;;;;;;44.90;18.90;;;8.50;92.50;;;;;;5052249;28;20176;-75
2023/04/16 07:50:21;;;;;;;45.57;18.27;;;8.40;92.50;;;;;;5052206;28;20247;-75
2023/04/16 07:52:47;;;;;;;38.83;17.13;;;8.40;92.60;;;;;;5056595;28;20188;-76
2023/04/16 07:55:12;;;;;;;39.30;17.80;;;8.40;92.80;;;;;;5059891;28;20184;-75
2023/04/16 07:57:39;;;;;;;39.17;16.10;;;8.30;92.60;;;;;;5053142;28;20916;-75
2023/04/16 08:00:06;;;;;;;39.73;17.73;;;8.40;92.70;;;;;;5063849;28;20181;-75
2023/04/16 08:02:32;;;;;;;35.43;15.80;;;8.40;92.80;;;;;;5066204;28;20422;-75
2023/04/16 08:04:58;;;;;;;36.93;16.97;;;8.50;92.90;;;;;;5032073;28;20433;-75
2023/04/16 08:07:23;;;;;;;39.80;18.10;;;8.50;92.80;;;;;;5044019;28;20450;-76
2023/04/16 08:09:51;;;;;;;46.23;17.70;;;8.60;92.60;;;;;;5033718;28;20430;-76
2023/04/16 08:12:17;;;;;;;44.37;19.50;;;8.60;92.40;;;;;;5051661;28;20560;-76
2023/04/16 08:14:44;;;;;;;38.50;17.50;;;8.50;92.10;;;;;;5050177;28;20775;-75
2023/04/16 08:17:11;;;;;;;38.70;17.20;;;8.60;92.00;;;;;;5045846;28;20455;-75
2023/04/16 08:19:36;;;;;;;38.80;17.30;;;8.50;91.70;;;;;;5051477;28;20423;-76
2023/04/16 08:22:02;;;;;;;32.07;15.37;;;8.40;91.80;;;;;;5050814;28;20505;-75
2023/04/16 08:24:27;;;;;;;37.63;16.67;;;8.50;91.90;;;;;;5051084;28;20215;-76
2023/04/16 08:26:53;;;;;;;33.00;16.13;;;8.60;92.10;;;;;;5050438;28;20682;-75
2023/04/16 08:29:19;;;;;;;39.90;17.27;;;8.50;91.80;;;;;;5052634;28;20231;-76
2023/04/16 08:31:45;;;;;;;30.13;14.93;;;8.60;91.90;;;;;;5037153;28;20542;-76
2023/04/16 08:34:11;;;;;;;33.30;16.77;;;8.60;91.80;;;;;;5052501;28;20418;-76
2023/04/16 08:36:37;;;;;;;34.60;17.33;;;8.60;91.60;;;;;;5055760;28;20454;-75
2023/04/16 08:39:02;;;;;;;32.30;14.63;;;8.50;91.40;;;;;;5060259;28;20191;-76
2023/04/16 08:41:31;;;;;;;27.80;15.13;;;8.50;91.70;;;;;;5057199;28;20277;-75
2023/04/16 08:44:03;;;;;;;38.73;16.80;;;8.50;91.80;;;;;;5043460;28;20208;-75
2023/04/16 08:46:35;;;;;;;36.50;16.43;;;8.50;91.80;;;;;;5065764;28;20498;-76
2023/04/16 08:49:06;;;;;;;32.53;15.53;;;8.50;91.70;;;;;;5069533;28;20414;-78
2023/04/16 08:51:35;;;;;;;38.57;16.40;;;8.60;91.90;;;;;;5068590;28;20423;-76
2023/04/16 08:54:10;;;;;;;40.43;18.20;;;8.60;91.90;;;;;;5065720;28;20431;-74
2023/04/16 08:56:37;;;;;;;30.93;15.00;;;8.60;92.00;;;;;;5065426;28;20492;-75
2023/04/16 08:59:06;;;;;;;34.80;15.23;;;8.60;91.90;;;;;;5069754;28;20450;-74
2023/04/16 09:01:32;;;;;;;31.40;15.33;;;8.70;91.80;;;;;;5070257;28;20482;-74
2023/04/16 09:04:01;;;;;;;33.40;15.40;;;8.70;91.50;;;;;;5071365;28;20454;-75
2023/04/16 09:06:27;;;;;;;33.93;16.87;;;8.90;91.80;;;;;;5056534;28;20493;-76
2023/04/16 09:08:54;;;;;;;31.87;13.93;;;8.80;91.20;;;;;;5054300;28;20782;-74
2023/04/16 09:11:20;;;;;;;36.63;15.50;;;8.70;90.80;;;;;;5033882;28;20519;-75
2023/04/16 09:13:46;;;;;;;32.70;14.80;;;8.80;91.30;;;;;;5054408;28;20415;-74
2023/04/16 09:16:13;;;;;;;37.37;15.90;;;8.80;91.30;;;;;;5048736;28;20454;-75
2023/04/16 09:18:39;;;;;;;32.13;14.53;;;8.90;91.40;;;;;;5051116;28;20492;-76
2023/04/16 09:21:06;;;;;;;27.50;14.60;;;9.00;91.30;;;;;;5030941;28;20882;-75
2023/04/16 09:23:32;;;;;;;27.30;14.00;;;9.00;91.00;;;;;;5069136;28;20462;-74
2023/04/16 09:25:58;;;;;;;32.50;14.50;;;9.10;90.90;;;;;;5067175;28;20461;-74
2023/04/16 09:28:41;;;;;;;33.90;15.20;;;9.20;90.70;;;;;;5051940;28;20252;-76
2023/04/16 09:31:14;;;;;;;29.23;13.73;;;9.10;90.30;;;;;;5065806;28;20446;-74
2023/04/16 09:33:41;;;;;;;33.73;13.70;;;9.10;90.30;;;;;;5064881;28;20437;-76
2023/04/16 09:36:09;;;;;;;34.80;15.90;;;9.00;90.40;;;;;;5051644;28;20461;-75
2023/04/16 09:38:52;;;;;;;40.90;15.57;;;9.00;90.40;;;;;;5052805;28;20459;-75
2023/04/16 09:41:18;;;;;;;33.63;14.10;;;9.10;90.60;;;;;;5032908;28;20427;-76
2023/04/16 09:43:57;;;;;;;32.00;14.80;;;9.20;90.80;;;;;;5053669;28;20572;-75
2023/04/16 09:46:24;;;;;;;27.80;14.20;;;9.30;90.60;;;;;;5049838;28;20462;-75
2023/04/16 09:48:50;;;;;;;31.70;13.80;;;9.30;90.10;;;;;;5037936;28;20953;-73
2023/04/16 09:51:15;;;;;;;34.70;15.33;;;9.20;89.90;;;;;;5059732;28;20425;-75
2023/04/16 09:53:41;;;;;;;29.97;13.17;;;9.20;89.90;;;;;;5036475;28;20211;-75
2023/04/16 09:56:08;;;;;;;37.60;14.60;;;9.10;89.60;;;;;;5044335;28;20284;-76
2023/04/16 09:58:37;;;;;;;35.77;15.23;;;9.00;90.00;;;;;;5051171;28;20184;-74
2023/04/16 10:01:10;;;;;;;31.43;14.43;;;9.00;90.40;;;;;;5045213;28;20433;-75
2023/04/16 10:03:37;;;;;;;36.47;16.47;;;9.00;90.20;;;;;;5045650;28;20923;-75
2023/04/16 10:06:17;;;;;;;31.60;14.83;;;8.90;90.40;;;;;;5048165;28;20956;-74
2023/04/16 10:08:55;;;;;;;35.17;15.20;;;8.90;89.90;;;;;;5050213;28;20909;-76
2023/04/16 10:11:21;;;;;;;30.57;14.23;;;8.90;90.40;;;;;;5050063;28;20415;-74
2023/04/16 10:13:47;;;;;;;30.70;13.77;;;8.90;90.40;;;;;;5049561;28;20507;-75
2023/04/16 10:16:13;;;;;;;30.10;14.50;;;8.90;90.40;;;;;;5047791;28;20219;-75
2023/04/16 10:18:40;;;;;;;32.53;14.03;;;9.00;90.60;;;;;;5049835;28;20266;-76
2023/04/16 10:21:06;;;;;;;35.50;16.47;;;9.00;90.60;;;;;;5030095;28;20195;-76
2023/04/16 10:23:33;;;;;;;31.13;14.77;;;9.10;90.50;;;;;;5050918;28;20470;-75
2023/04/16 10:26:00;;;;;;;32.63;14.43;;;9.10;90.60;;;;;;5052935;28;20454;-75
2023/04/16 10:28:28;;;;;;;34.23;15.37;;;9.30;90.60;;;;;;5057619;28;20437;-76
2023/04/16 10:30:55;;;;;;;34.90;14.57;;;9.40;90.70;;;;;;5053698;28;20419;-76
2023/04/16 10:33:22;;;;;;;33.70;13.13;;;9.30;90.10;;;;;;5055634;28;20461;-76
2023/04/16 10:36:05;;;;;;;29.20;13.90;;;9.30;89.30;;;;;;5048499;28;20555;-77
2023/04/16 10:38:31;;;;;;;32.10;14.10;;;9.40;89.30;;;;;;5051875;28;20506;-75
2023/04/16 10:41:05;;;;;;;32.60;13.67;;;9.30;89.00;;;;;;5057547;28;20478;-77
2023/04/16 10:43:33;;;;;;;32.30;15.00;;;9.50;89.70;;;;;;5052937;28;20220;-76
2023/04/16 10:46:19;;;;;;;31.80;15.13;;;9.60;89.60;;;;;;5053501;28;20845;-76
2023/04/16 10:48:46;;;;;;;28.13;12.93;;;9.70;89.50;;;;;;5042517;28;20441;-76
2023/04/16 10:51:33;;;;;;;32.40;13.63;;;9.80;89.60;;;;;;5052436;28;20493;-77
2023/04/16 10:54:30;;;;;;;28.03;13.40;;;9.90;89.20;;;;;;5048046;28;20564;-75
2023/04/16 10:56:59;;;;;;;30.60;13.80;;;9.60;88.00;;;;;;5045377;28;20458;-77
2023/04/16 10:59:30;;;;;;;29.97;12.83;;;9.60;88.70;;;;;;5040179;28;20566;-76
2023/04/16 11:02:00;;;;;;;29.13;13.73;;;9.50;89.00;;;;;;5057323;28;20419;-77
2023/04/16 11:04:26;;;;;;;29.77;13.87;;;9.70;89.70;;;;;;5055841;28;20475;-76
2023/04/16 11:07:13;;;;;;;29.27;12.93;;;9.70;90.00;;;;;;5052854;28;20799;-76
2023/04/16 11:09:49;;;;;;;31.10;13.93;;;9.70;89.50;;;;;;5052743;28;20419;-75
2023/04/16 11:12:17;;;;;;;25.07;11.13;;;9.60;89.20;;;;;;5052415;28;20419;-75
2023/04/16 11:14:52;;;;;;;25.83;12.10;;;9.60;89.50;;;;;;5052580;28;20422;-77
2023/04/16 11:17:19;;;;;;;31.23;13.60;;;9.70;89.50;;;;;;5034881;28;20462;-76
2023/04/16 11:19:45;;;;;;;26.50;11.63;;;9.70;89.20;;;;;;5050395;28;20434;-75
2023/04/16 11:22:16;;;;;;;25.80;11.90;;;9.50;88.90;;;;;;5056470;28;20434;-76
2023/04/16 11:24:46;;;;;;;23.00;10.73;;;9.60;89.60;;;;;;5041793;28;20576;-77
2023/04/16 11:27:15;;;;;;;19.93;10.33;;;9.50;89.90;;;;;;5056043;28;20459;-76
2023/04/16 11:29:41;;;;;;;19.73;10.03;;;9.40;90.00;;;;;;5060876;28;20484;-76
2023/04/16 11:32:07;;;;;;;20.03;10.40;;;9.30;90.20;;;;;;5063360;28;20467;-76
2023/04/16 11:34:33;;;;;;;22.70;10.07;;;9.30;90.50;;;;;;5054768;28;20430;-76
2023/04/16 11:36:58;;;;;;;19.10;9.13;;;9.40;90.70;;;;;;5049530;28;20223;-76
2023/04/16 11:39:24;;;;;;;21.07;8.93;;;9.50;90.60;;;;;;5034655;28;20181;-75
2023/04/16 11:41:51;;;;;;;15.70;8.40;;;9.50;90.60;;;;;;5052058;28;20275;-76
2023/04/16 11:44:22;;;;;;;15.53;8.10;;;9.40;90.00;;;;;;5033484;28;20223;-76
2023/04/16 11:46:48;;;;;;;19.50;8.63;;;9.40;90.40;;;;;;5045840;28;20882;-76
2023/04/16 11:49:16;;;;;;;13.77;7.63;;;9.40;90.60;;;;;;5050454;28;20426;-77
2023/04/16 11:51:44;;;;;;;17.00;8.00;;;9.30;90.40;;;;;;5049660;28;20478;-76
2023/04/16 11:54:18;;;;;;;19.17;8.43;;;9.30;90.80;;;;;;5049029;28;20427;-76
2023/04/16 11:56:46;;;;;;;15.93;8.20;;;9.50;91.20;;;;;;5051084;28;20454;-76
2023/04/16 11:59:14;;;;;;;17.93;8.00;;;9.60;91.20;;;;;;5052354;28;20740;-76
2023/04/16 12:01:41;;;;;;;13.93;7.27;;;9.70;91.00;;;;;;5051832;28;20439;-76
2023/04/16 12:04:07;;;;;;;14.87;6.93;;;9.60;90.70;;;;;;5050431;28;20965;-75
2023/04/16 12:06:33;;;;;;;13.23;6.50;;;9.60;90.50;;;;;;5049253;28;20467;-75
2023/04/16 12:08:59;;;;;;;11.10;5.70;;;9.60;90.40;;;;;;5051256;28;20434;-75
2023/04/16 12:11:41;;;;;;;10.20;6.17;;;9.50;89.90;;;;;;5045702;28;20260;-76
2023/04/16 12:14:11;;;;;;;9.47;5.47;;;9.50;90.40;;;;;;5050580;28;20526;-76
2023/04/16 12:16:37;;;;;;;11.00;6.10;;;9.50;90.40;;;;;;5048788;28;20467;-76
2023/04/16 12:19:04;;;;;;;14.70;6.23;;;9.50;90.60;;;;;;5051742;28;20438;-75
2023/04/16 12:21:40;;;;;;;14.63;6.63;;;9.60;90.80;;;;;;5049996;28;20648;-77
2023/04/16 12:24:07;;;;;;;11.90;5.80;;;9.60;90.60;;;;;;5049961;28;20477;-76
2023/04/16 12:26:45;;;;;;;12.70;7.13;;;9.50;90.60;;;;;;5049018;28;20462;-76
2023/04/16 12:29:40;;;;;;;12.40;6.50;;;9.60;91.00;;;;;;5051198;28;20439;-75
2023/04/16 12:32:21;;;;;;;12.80;6.43;;;9.60;90.80;;;;;;4968688;28;20438;-75
2023/04/16 12:34:50;;;;;;;9.70;5.27;;;9.60;90.60;;;;;;4984305;28;20457;-75
2023/04/16 12:37:15;;;;;;;11.73;6.07;;;9.50;90.40;;;;;;4985906;28;20465;-75